Terminal Aerodrome Forecast
Issued by NWS

Home | Current Version | Previous Version | Graphics & Text | Print | Product List | Glossary On
Versions: 1 2 3 4 5 6 7 8 9 10 11 12
000
FTUS43 KGRB 261138
TAFATW
TAF
KATW 261138Z 2612/2712 VRB03KT P6SM BKN250
      TEMPO 2612/2613 6SM BR
     FM261500 22005KT P6SM SCT120 BKN250
     FM261900 19008KT P6SM SCT250
     FM262300 20004KT P6SM SKC=

USA.gov is the U.S. government's official web portal to all federal, state and local government web resources and services.